Wednesday, April 25, 2018, 1:09 AM EDT
Back to Local

KHLG, Wheeling Ohio County Airport

Location: Wheeling, WV, United States Lat: 40.167
Local Time: 1:09 AM EDT ( 5:09 GMT) Lon: -80.65
Time Zone: US/Eastern Elev: 1194 ft

Show me the last for .
Show Decoded

2018-04-25 00:53 METAR KHLG 250453Z AUTO 08007KT 10SM OVC050 10/09 A2989 RMK AO2 SLP127 T01000089
                 401280089 =
2018-04-24 23:53 METAR KHLG 250353Z AUTO 08006KT 10SM BKN050 OVC060 11/09 A2991 RMK AO2 RAB40E52
                 SLP132 P0000 T01060089 =
2018-04-24 22:53 METAR KHLG 250253Z AUTO 08006KT 10SM OVC050 11/09 A2993 RMK AO2 SLP141 60003
                 T01060089 58011 =
2018-04-24 21:53 METAR KHLG 250153Z 09010KT 10SM FEW060 OVC080 11/09 A2995 RMK AO2 RAE53 SLP146
                 P0001 T01060089 =
2018-04-24 20:53 METAR KHLG 250053Z 09012KT 10SM -RA BKN060 OVC075 11/09 A2995 RMK AO2 SLP147
                 P0002 T01060089 =
2018-04-24 20:00 METAR KHLG 250000Z 08007KT 7SM -RA SCT012 BKN060 OVC070 11/09 A2996 RMK AO2
                 P0000 T01060089 =
2018-04-24 19:53 METAR KHLG 242353Z 08008KT 6SM -RA BR SCT010 BKN018 OVC070 11/09 A2996 RMK AO2
                 SLP152 P0006 60039 T01060089 10122 20106 56006 =
2018-04-24 19:28 METAR KHLG 242328Z 06006KT 7SM -RA SCT013 BKN024 OVC070 11/09 A2997 RMK AO2
                 P0004 T01060094 =
2018-04-24 18:53 METAR KHLG 242253Z 08007KT 4SM -RA BR FEW011 SCT023 OVC055 11/09 A2997 RMK AO2
                 SLP155 P0010 T01110094 =
2018-04-24 18:50 METAR KHLG 242250Z 10005KT 4SM -RA BR FEW011 SCT049 OVC055 11/09 A2997 RMK AO2
                 P0010 =
2018-04-24 18:22 METAR KHLG 242222Z 09008KT 5SM -RA BR SCT009 BKN016 OVC055 11/09 A2998 RMK AO2
                 P0004 T01110094 =
2018-04-24 17:48 METAR KHLG 242148Z 07006KT 6SM -RA BR FEW011 BKN014 OVC055 11/09 A2998 RMK AO2
                 SLP157 P0007 T01110094 =
2018-04-24 17:47 METAR KHLG 242147Z 09007KT 6SM -RA BR FEW011 BKN014 OVC055 11/09 A2998 RMK AO2
                 P0006 =
2018-04-24 16:53 METAR KHLG 242053Z 09009G17KT 6SM -RA BR FEW015 SCT060 OVC080 11/09 A2998 RMK
                 AO2 SLP156 P0006 60016 T01110094 56017 =
2018-04-24 16:18 METAR KHLG 242018Z 10011KT 6SM -RA BR SCT018 BKN060 OVC075 12/09 A2999 RMK AO2
                 P0002 T01170094 =
2018-04-24 16:09 METAR KHLG 242009Z 10013KT 6SM -RA BR SCT014 BKN022 OVC080 12/09 A2999 RMK AO2
                 P0001 T01170094 =
2018-04-24 15:53 METAR KHLG 241953Z 09013KT 5SM -RA BR BKN014 BKN022 OVC050 12/09 A3000 RMK AO2
                 SLP161 P0006 T01170094 =
2018-04-24 15:38 METAR KHLG 241938Z 11009KT 8SM -RA SCT013 BKN023 OVC055 12/10 A3000 RMK AO2
                 P0004 T01170100 =
2018-04-24 15:09 METAR KHLG 241909Z 09012KT 5SM -RA BR SCT014 BKN055 OVC070 12/10 A3001 RMK AO2
                 P0002 T01220100 =
2018-04-24 15:01 METAR KHLG 241901Z 09009KT 4SM RA BR BKN014 BKN060 OVC080 12/10 A3001 RMK AO2
                 P0001 T01170100 =
2018-04-24 14:53 METAR KHLG 241853Z 09008KT 6SM -RA BR SCT014 BKN065 OVC080 12/10 A3001 RMK AO2
                 SLP167 P0004 T01170100 =
2018-04-24 13:53 METAR KHLG 241753Z 08011KT 6SM -RA BR BKN075 OVC090 11/09 A3003 RMK AO2 SLP174
                 P0004 60043 T01110094 10111 20089 57022 =
2018-04-24 12:53 METAR KHLG 241653Z 08009KT 5SM -RA BR BKN050 OVC065 11/08 A3005 RMK AO2 SLP181
                 P0008 T01060083 =
2018-04-24 11:53 METAR KHLG 241553Z 10013KT 6SM -RA BR FEW050 OVC080 10/08 A3008 RMK AO2 SLP189
                 P0005 T01000078 =
2018-04-24 10:53 METAR KHLG 241453Z 08010KT 3SM RA BR FEW009 BKN055 OVC070 09/08 A3010 RMK AO2
                 SLP196 P0010 60026 T00940078 58013 =
2018-04-24 09:53 METAR KHLG 241353Z 07008KT 5SM -RA BR BKN055 BKN075 OVC090 09/07 A3011 RMK AO2
                 SLP201 P0006 T00890072 =
2018-04-24 08:53 METAR KHLG 241253Z 08007KT 6SM -RA BR OVC080 09/07 A3013 RMK AO2 SLP206 P0010
                 T00890067 =
2018-04-24 07:53 METAR KHLG 241153Z 09009KT 7SM -RA SCT055 BKN075 OVC090 09/06 A3014 RMK AO2
                 SLP207 P0002 60011 70011 T00890061 10128 20089 58003 =
2018-04-24 06:53 METAR KHLG 241053Z 09013KT 6SM -RA OVC055 09/06 A3014 RMK AO2 SLP207 P0008
                 T00890061 =
2018-04-24 05:53 METAR KHLG 240953Z AUTO 12011KT 10SM -RA BKN055 OVC080 11/06 A3015 RMK AO2
                 SLP210 P0001 T01060056 =
2018-04-24 04:53 METAR KHLG 240853Z AUTO 12012G20KT 10SM -RA FEW055 OVC070 12/06 A3015 RMK AO2
                 RAB52 SLP208 P0000 60000 T01170056 56007 =
2018-04-24 03:53 METAR KHLG 240753Z AUTO 09012KT 10SM OVC060 12/07 A3015 RMK AO2 RAE0656 SLP209
                 P0000 T01220067 =
2018-04-24 02:53 METAR KHLG 240653Z AUTO 09008KT 10SM -RA OVC055 12/08 A3015 RMK AO2 RAE05B41
                 SLP208 P0000 T01220078 =
2018-04-24 01:53 METAR KHLG 240553Z AUTO 10010KT 10SM -RA BKN050 OVC090 13/08 A3017 RMK AO2
                 RAE21B40 SLP215 P0000 60000 T01280078 10183 20122 56012 =

Support USWX by starting your Amazon purchase here.